sensor_id;sensor_type;location;lat;lon;timestamp;pressure;altitude;pressure_sealevel;temperature;humidity
76637;BME280;65532;52.124;5.480;2023-07-24T00:01:06;100410.44;;;17.65;81.23
76637;BME280;65532;52.124;5.480;2023-07-24T00:03:32;100408.00;;;17.63;81.60
76637;BME280;65532;52.124;5.480;2023-07-24T00:05:59;100409.09;;;17.62;81.33
76637;BME280;65532;52.124;5.480;2023-07-24T00:08:26;100412.66;;;17.63;81.38
76637;BME280;65532;52.124;5.480;2023-07-24T00:10:52;100415.69;;;17.61;81.18
76637;BME280;65532;52.124;5.480;2023-07-24T00:13:19;100420.63;;;17.59;81.16
76637;BME280;65532;52.124;5.480;2023-07-24T00:15:46;100412.72;;;17.58;81.54
76637;BME280;65532;52.124;5.480;2023-07-24T00:18:12;100409.44;;;17.56;81.97
76637;BME280;65532;52.124;5.480;2023-07-24T00:20:39;100397.44;;;17.52;82.04
76637;BME280;65532;52.124;5.480;2023-07-24T00:23:05;100391.72;;;17.48;82.09
76637;BME280;65532;52.124;5.480;2023-07-24T00:25:32;100398.34;;;17.42;81.70
76637;BME280;65532;52.124;5.480;2023-07-24T00:27:58;100400.56;;;17.40;81.18
76637;BME280;65532;52.124;5.480;2023-07-24T00:30:25;100400.31;;;17.36;80.62
76637;BME280;65532;52.124;5.480;2023-07-24T00:32:51;100398.97;;;17.34;80.19
76637;BME280;65532;52.124;5.480;2023-07-24T00:35:18;100396.28;;;17.29;79.73
76637;BME280;65532;52.124;5.480;2023-07-24T00:37:44;100391.66;;;17.24;79.22
76637;BME280;65532;52.124;5.480;2023-07-24T00:40:11;100396.91;;;17.21;77.77
76637;BME280;65532;52.124;5.480;2023-07-24T00:42:38;100394.44;;;17.19;76.62
76637;BME280;65532;52.124;5.480;2023-07-24T00:45:06;100382.66;;;17.19;75.42
76637;BME280;65532;52.124;5.480;2023-07-24T00:47:33;100378.81;;;17.20;74.82
76637;BME280;65532;52.124;5.480;2023-07-24T00:49:59;100373.34;;;17.20;75.16
76637;BME280;65532;52.124;5.480;2023-07-24T00:52:26;100373.91;;;17.22;76.70
76637;BME280;65532;52.124;5.480;2023-07-24T00:54:53;100364.88;;;17.21;78.26
76637;BME280;65532;52.124;5.480;2023-07-24T00:57:20;100353.13;;;17.21;79.22
76637;BME280;65532;52.124;5.480;2023-07-24T00:59:46;100356.38;;;17.23;79.83
76637;BME280;65532;52.124;5.480;2023-07-24T01:02:13;100348.19;;;17.23;80.32
76637;BME280;65532;52.124;5.480;2023-07-24T01:04:39;100347.06;;;17.24;80.56
76637;BME280;65532;52.124;5.480;2023-07-24T01:07:06;100341.59;;;17.24;80.73
76637;BME280;65532;52.124;5.480;2023-07-24T01:09:33;100340.22;;;17.26;81.36
76637;BME280;65532;52.124;5.480;2023-07-24T01:12:10;100341.84;;;17.27;81.38
76637;BME280;65532;52.124;5.480;2023-07-24T01:14:46;100347.31;;;17.27;82.12
76637;BME280;65532;52.124;5.480;2023-07-24T01:17:15;100344.28;;;17.29;82.12
76637;BME280;65532;52.124;5.480;2023-07-24T01:19:54;100348.13;;;17.28;81.94
76637;BME280;65532;52.124;5.480;2023-07-24T01:25:18;100349.75;;;17.29;82.24
76637;BME280;65532;52.124;5.480;2023-07-24T01:27:49;100347.59;;;17.26;82.37
76637;BME280;65532;52.124;5.480;2023-07-24T01:30:19;100341.59;;;17.24;82.04
76637;BME280;65532;52.124;5.480;2023-07-24T01:32:46;100341.59;;;17.24;81.73
76637;BME280;65532;52.124;5.480;2023-07-24T01:35:15;100349.00;;;17.23;81.48
76637;BME280;65532;52.124;5.480;2023-07-24T01:37:43;100343.53;;;17.23;80.93
76637;BME280;65532;52.124;5.480;2023-07-24T01:40:11;100341.06;;;17.22;80.56
76637;BME280;65532;52.124;5.480;2023-07-24T01:42:38;100343.81;;;17.22;79.74
76637;BME280;65532;52.124;5.480;2023-07-24T01:45:06;100336.72;;;17.21;79.14
76637;BME280;65532;52.124;5.480;2023-07-24T01:47:33;100325.78;;;17.21;78.60
76637;BME280;65532;52.124;5.480;2023-07-24T01:49:59;100327.41;;;17.22;77.42
76637;BME280;65532;52.124;5.480;2023-07-24T01:52:26;100320.28;;;17.21;76.12
76637;BME280;65532;52.124;5.480;2023-07-24T01:54:53;100314.53;;;17.22;74.81
76637;BME280;65532;52.124;5.480;2023-07-24T01:57:19;100318.38;;;17.21;73.07
76637;BME280;65532;52.124;5.480;2023-07-24T01:59:46;100315.09;;;17.19;71.63
76637;BME280;65532;52.124;5.480;2023-07-24T02:02:13;100315.66;;;17.16;70.36
76637;BME280;65532;52.124;5.480;2023-07-24T02:04:39;100301.75;;;17.13;68.49
76637;BME280;65532;52.124;5.480;2023-07-24T02:07:06;100314.91;;;17.11;66.72
76637;BME280;65532;52.124;5.480;2023-07-24T02:09:32;100301.53;;;17.09;65.17
76637;BME280;65532;52.124;5.480;2023-07-24T02:11:59;100307.81;;;17.10;63.63
76637;BME280;65532;52.124;5.480;2023-07-24T02:14:26;100300.19;;;17.06;62.06
76637;BME280;65532;52.124;5.480;2023-07-24T02:16:53;100305.94;;;17.05;60.40
76637;BME280;65532;52.124;5.480;2023-07-24T02:19:19;100299.66;;;17.04;58.97
76637;BME280;65532;52.124;5.480;2023-07-24T02:21:46;100297.19;;;17.03;58.13
76637;BME280;65532;52.124;5.480;2023-07-24T02:24:13;100301.84;;;17.02;58.01
76637;BME280;65532;52.124;5.480;2023-07-24T02:26:39;100294.72;;;17.01;57.08
76637;BME280;65532;52.124;5.480;2023-07-24T02:29:06;100289.25;;;17.01;57.00
76637;BME280;65532;52.124;5.480;2023-07-24T02:31:33;100287.63;;;17.00;56.82
76637;BME280;65532;52.124;5.480;2023-07-24T02:33:59;100291.47;;;16.99;56.83
76637;BME280;65532;52.124;5.480;2023-07-24T02:36:26;100285.47;;;16.97;57.04
76637;BME280;65532;52.124;5.480;2023-07-24T02:38:53;100282.75;;;16.97;57.45
76637;BME280;65532;52.124;5.480;2023-07-24T02:41:19;100283.56;;;16.98;57.41
76637;BME280;65532;52.124;5.480;2023-07-24T02:43:46;100279.72;;;16.99;57.32
76637;BME280;65532;52.124;5.480;2023-07-24T02:46:13;100274.25;;;16.99;56.94
76637;BME280;65532;52.124;5.480;2023-07-24T02:48:39;100281.34;;;17.00;57.02
76637;BME280;65532;52.124;5.480;2023-07-24T02:51:06;100277.50;;;17.01;57.25
76637;BME280;65532;52.124;5.480;2023-07-24T02:53:32;100277.22;;;17.02;57.04
76637;BME280;65532;52.124;5.480;2023-07-24T02:56:01;100277.22;;;17.02;56.41
76637;BME280;65532;52.124;5.480;2023-07-24T02:58:28;100280.78;;;17.03;57.41
76637;BME280;65532;52.124;5.480;2023-07-24T03:01:05;100280.50;;;17.04;60.19
76637;BME280;65532;52.124;5.480;2023-07-24T03:03:33;100264.09;;;17.04;60.97
76637;BME280;65532;52.124;5.480;2023-07-24T03:06:01;100271.19;;;17.05;60.58
76637;BME280;65532;52.124;5.480;2023-07-24T03:08:28;100270.09;;;17.06;60.26
76637;BME280;65532;52.124;5.480;2023-07-24T03:10:55;100273.94;;;17.05;58.88
76637;BME280;65532;52.124;5.480;2023-07-24T03:13:21;100268.47;;;17.05;57.25
76637;BME280;65532;52.124;5.480;2023-07-24T03:15:52;100261.34;;;17.04;56.66
76637;BME280;65532;52.124;5.480;2023-07-24T03:18:19;100258.63;;;17.04;55.82
76637;BME280;65532;52.124;5.480;2023-07-24T03:20:46;100253.41;;;17.03;54.41
76637;BME280;65532;52.124;5.480;2023-07-24T03:23:13;100259.19;;;17.01;52.88
76637;BME280;65532;52.124;5.480;2023-07-24T03:25:40;100253.19;;;16.99;51.59
76637;BME280;65532;52.124;5.480;2023-07-24T03:28:07;100246.09;;;16.98;50.54
76637;BME280;65532;52.124;5.480;2023-07-24T03:30:33;100248.00;;;16.98;49.07
76637;BME280;65532;52.124;5.480;2023-07-24T03:33:01;100239.56;;;16.94;46.99
76637;BME280;65532;52.124;5.480;2023-07-24T03:35:29;100247.25;;;16.92;44.61
76637;BME280;65532;52.124;5.480;2023-07-24T03:37:56;100250.56;;;16.89;42.73
76637;BME280;65532;52.124;5.480;2023-07-24T03:40:25;100249.19;;;16.87;40.80
76637;BME280;65532;52.124;5.480;2023-07-24T03:42:51;100249.47;;;16.85;39.16
76637;BME280;65532;52.124;5.480;2023-07-24T03:45:18;100246.50;;;16.82;38.53
76637;BME280;65532;52.124;5.480;2023-07-24T03:47:44;100247.91;;;16.79;37.47
76637;BME280;65532;52.124;5.480;2023-07-24T03:50:11;100253.66;;;16.77;36.85
76637;BME280;65532;52.124;5.480;2023-07-24T03:52:38;100241.41;;;16.75;36.30
76637;BME280;65532;52.124;5.480;2023-07-24T03:55:05;100235.94;;;16.75;35.26
76637;BME280;65532;52.124;5.480;2023-07-24T03:57:32;100241.94;;;16.72;35.46
76637;BME280;65532;52.124;5.480;2023-07-24T03:59:58;100251.25;;;16.71;35.40
76637;BME280;65532;52.124;5.480;2023-07-24T04:02:25;100259.22;;;16.67;34.85
76637;BME280;65532;52.124;5.480;2023-07-24T04:04:51;100252.94;;;16.67;34.45
76637;BME280;65532;52.124;5.480;2023-07-24T04:07:18;100249.34;;;16.66;33.37
76637;BME280;65532;52.124;5.480;2023-07-24T04:09:44;100248.53;;;16.66;32.39
76637;BME280;65532;52.124;5.480;2023-07-24T04:12:11;100246.09;;;16.64;31.48
76637;BME280;65532;52.124;5.480;2023-07-24T04:14:37;100246.91;;;16.65;30.19
76637;BME280;65532;52.124;5.480;2023-07-24T04:17:04;100249.13;;;16.63;28.78
76637;BME280;65532;52.124;5.480;2023-07-24T04:19:32;100242.00;;;16.62;27.46
76637;BME280;65532;52.124;5.480;2023-07-24T04:21:59;100247.47;;;16.62;27.28
76637;BME280;65532;52.124;5.480;2023-07-24T04:24:25;100251.31;;;16.61;26.87
76637;BME280;65532;52.124;5.480;2023-07-24T04:26:52;100235.22;;;16.59;25.67
76637;BME280;65532;52.124;5.480;2023-07-24T04:29:19;100248.06;;;16.59;25.69
76637;BME280;65532;52.124;5.480;2023-07-24T04:31:49;100244.78;;;16.57;25.64
76637;BME280;65532;52.124;5.480;2023-07-24T04:34:16;100248.59;;;16.56;26.01
76637;BME280;65532;52.124;5.480;2023-07-24T04:36:43;100246.97;;;16.55;26.46
76637;BME280;65532;52.124;5.480;2023-07-24T04:39:09;100252.44;;;16.55;27.58
76637;BME280;65532;52.124;5.480;2023-07-24T04:41:36;100261.16;;;16.57;28.40
76637;BME280;65532;52.124;5.480;2023-07-24T04:44:03;100256.28;;;16.54;30.14
76637;BME280;65532;52.124;5.480;2023-07-24T04:46:29;100260.66;;;16.55;32.39
76637;BME280;65532;52.124;5.480;2023-07-24T04:48:56;100259.53;;;16.56;34.37
76637;BME280;65532;52.124;5.480;2023-07-24T04:51:23;100259.81;;;16.54;36.15
76637;BME280;65532;52.124;5.480;2023-07-24T04:53:49;100254.66;;;16.53;38.11
76637;BME280;65532;52.124;5.480;2023-07-24T04:56:16;100249.75;;;16.50;38.99
76637;BME280;65532;52.124;5.480;2023-07-24T04:58:42;100239.13;;;16.48;40.79
76637;BME280;65532;52.124;5.480;2023-07-24T05:01:09;100257.44;;;16.47;42.36
76637;BME280;65532;52.124;5.480;2023-07-24T05:03:35;100250.91;;;16.43;43.20
76637;BME280;65532;52.124;5.480;2023-07-24T05:06:02;100256.91;;;16.40;43.39
76637;BME280;65532;52.124;5.480;2023-07-24T05:08:29;100255.28;;;16.39;43.44
76637;BME280;65532;52.124;5.480;2023-07-24T05:10:56;100256.09;;;16.40;43.44
76637;BME280;65532;52.124;5.480;2023-07-24T05:13:23;100254.19;;;16.40;43.60
76637;BME280;65532;52.124;5.480;2023-07-24T05:15:50;100251.47;;;16.40;43.78
76637;BME280;65532;52.124;5.480;2023-07-24T05:18:16;100253.94;;;16.42;44.10
76637;BME280;65532;52.124;5.480;2023-07-24T05:20:46;100249.53;;;16.46;44.25
76637;BME280;65532;52.124;5.480;2023-07-24T05:23:14;100255.47;;;16.53;44.10
76637;BME280;65532;52.124;5.480;2023-07-24T05:25:40;100259.81;;;16.59;44.75
76637;BME280;65532;52.124;5.480;2023-07-24T05:28:07;100258.72;;;16.60;46.63
76637;BME280;65532;52.124;5.480;2023-07-24T05:30:34;100257.31;;;16.63;49.29
76637;BME280;65532;52.124;5.480;2023-07-24T05:33:00;100272.88;;;16.67;50.85
76637;BME280;65532;52.124;5.480;2023-07-24T05:35:27;100269.28;;;16.72;50.42
76637;BME280;65532;52.124;5.480;2023-07-24T05:37:53;100265.94;;;16.80;52.72
76637;BME280;65532;52.124;5.480;2023-07-24T05:40:20;100264.31;;;16.79;57.37
76637;BME280;65532;52.124;5.480;2023-07-24T05:42:47;100265.94;;;16.80;59.48
76637;BME280;65532;52.124;5.480;2023-07-24T05:45:14;100252.22;;;16.85;62.39
76637;BME280;65532;52.124;5.480;2023-07-24T05:47:43;100257.69;;;16.85;66.18
76637;BME280;65532;52.124;5.480;2023-07-24T05:50:10;100263.44;;;16.84;68.10
76637;BME280;65532;52.124;5.480;2023-07-24T05:52:36;100259.59;;;16.85;68.23
76637;BME280;65532;52.124;5.480;2023-07-24T05:55:03;100265.88;;;16.90;69.03
76637;BME280;65532;52.124;5.480;2023-07-24T05:57:30;100263.06;;;16.95;69.88
76637;BME280;65532;52.124;5.480;2023-07-24T05:59:56;100263.53;;;17.02;71.21
76637;BME280;65532;52.124;5.480;2023-07-24T06:02:23;100268.47;;;17.05;74.04
76637;BME280;65532;52.124;5.480;2023-07-24T06:04:50;100274.63;;;17.16;74.82
76637;BME280;65532;52.124;5.480;2023-07-24T06:07:16;100273.72;;;17.26;77.25
76637;BME280;65532;52.124;5.480;2023-07-24T06:09:43;100272.31;;;17.28;79.93
76637;BME280;65532;52.124;5.480;2023-07-24T06:12:09;100274.25;;;17.28;80.98
76637;BME280;65532;52.124;5.480;2023-07-24T06:14:36;100263.81;;;17.30;81.96
76637;BME280;65532;52.124;5.480;2023-07-24T06:17:03;100271.41;;;17.38;81.99
76637;BME280;65532;52.124;5.480;2023-07-24T06:19:29;100277.22;;;17.55;83.46
76637;BME280;65532;52.124;5.480;2023-07-24T06:21:56;100276.81;;;17.91;86.25
76637;BME280;65532;52.124;5.480;2023-07-24T06:24:22;100277.00;;;18.37;87.76
76637;BME280;65532;52.124;5.480;2023-07-24T06:26:50;100276.97;;;19.07;93.51
76637;BME280;65532;52.124;5.480;2023-07-24T06:29:16;100279.91;;;19.57;93.55
76637;BME280;65532;52.124;5.480;2023-07-24T06:31:43;100280.00;;;19.66;92.56
76637;BME280;65532;52.124;5.480;2023-07-24T06:34:10;100277.94;;;19.30;93.40
76637;BME280;65532;52.124;5.480;2023-07-24T06:36:36;100289.47;;;19.60;93.00
76637;BME280;65532;52.124;5.480;2023-07-24T06:39:03;100281.44;;;19.63;91.75
76637;BME280;65532;52.124;5.480;2023-07-24T06:41:29;100272.75;;;19.29;91.55
76637;BME280;65532;52.124;5.480;2023-07-24T06:43:56;100286.28;;;18.93;92.42
76637;BME280;65532;52.124;5.480;2023-07-24T06:46:23;100287.66;;;19.23;93.07
76637;BME280;65532;52.124;5.480;2023-07-24T06:48:49;100280.72;;;19.58;92.27
76637;BME280;65532;52.124;5.480;2023-07-24T06:51:16;100276.78;;;20.14;91.41
76637;BME280;65532;52.124;5.480;2023-07-24T06:53:42;100282.31;;;21.17;87.46
76637;BME280;65532;52.124;5.480;2023-07-24T06:56:09;100279.84;;;21.38;83.97
76637;BME280;65532;52.124;5.480;2023-07-24T06:58:35;100267.78;;;21.65;83.86
76637;BME280;65532;52.124;5.480;2023-07-24T07:01:05;100275.38;;;22.25;80.50
76637;BME280;65532;52.124;5.480;2023-07-24T07:03:33;100276.59;;;21.84;78.68
76637;BME280;65532;52.124;5.480;2023-07-24T07:06:02;100265.88;;;21.34;79.96
76637;BME280;65532;52.124;5.480;2023-07-24T07:08:32;100279.97;;;21.33;81.08
76637;BME280;65532;52.124;5.480;2023-07-24T07:10:59;100279.03;;;21.46;82.06
76637;BME280;65532;52.124;5.480;2023-07-24T07:13:26;100274.66;;;21.93;79.25
76637;BME280;65532;52.124;5.480;2023-07-24T07:15:53;100282.56;;;21.77;77.93
76637;BME280;65532;52.124;5.480;2023-07-24T07:18:19;100277.03;;;21.29;78.37
76637;BME280;65532;52.124;5.480;2023-07-24T07:20:51;100300.66;;;20.77;80.21
76637;BME280;65532;52.124;5.480;2023-07-24T07:23:19;100297.41;;;20.39;81.37
76637;BME280;65532;52.124;5.480;2023-07-24T07:25:46;100291.47;;;20.09;82.31
76637;BME280;65532;52.124;5.480;2023-07-24T07:28:13;100298.81;;;19.86;83.84
76637;BME280;65532;52.124;5.480;2023-07-24T07:30:41;100297.09;;;19.90;84.67
76637;BME280;65532;52.124;5.480;2023-07-24T07:33:11;100298.72;;;19.91;85.16
76637;BME280;65532;52.124;5.480;2023-07-24T07:35:38;100289.34;;;19.92;84.53
76637;BME280;65532;52.124;5.480;2023-07-24T07:38:04;100293.09;;;19.96;84.23
76637;BME280;65532;52.124;5.480;2023-07-24T07:40:31;100285.03;;;20.14;84.11
76637;BME280;65532;52.124;5.480;2023-07-24T07:42:57;100268.94;;;20.21;84.50
76637;BME280;65532;52.124;5.480;2023-07-24T07:45:24;100275.03;;;20.18;83.22
76637;BME280;65532;52.124;5.480;2023-07-24T07:47:50;100282.44;;;19.95;83.27
76637;BME280;65532;52.124;5.480;2023-07-24T07:50:19;100278.38;;;19.79;84.08
76637;BME280;65532;52.124;5.480;2023-07-24T07:52:49;100272.06;;;19.64;84.16
76637;BME280;65532;52.124;5.480;2023-07-24T07:55:16;100270.03;;;19.56;85.04
76637;BME280;65532;52.124;5.480;2023-07-24T07:57:42;100267.81;;;19.58;85.35
76637;BME280;65532;52.124;5.480;2023-07-24T08:00:10;100275.75;;;19.60;85.68
76637;BME280;65532;52.124;5.480;2023-07-24T08:02:37;100274.13;;;19.59;85.22
76637;BME280;65532;52.124;5.480;2023-07-24T08:05:08;100267.19;;;19.75;85.79
76637;BME280;65532;52.124;5.480;2023-07-24T08:07:45;100264.94;;;19.77;85.41
76637;BME280;65532;52.124;5.480;2023-07-24T08:10:12;100257.41;;;19.83;84.61
76637;BME280;65532;52.124;5.480;2023-07-24T08:12:42;100257.81;;;19.76;83.33
76637;BME280;65532;52.124;5.480;2023-07-24T08:15:09;100263.13;;;19.72;84.26
76637;BME280;65532;52.124;5.480;2023-07-24T08:17:36;100268.81;;;19.90;84.73
76637;BME280;65532;52.124;5.480;2023-07-24T08:20:03;100269.38;;;20.00;84.82
76637;BME280;65532;52.124;5.480;2023-07-24T08:22:29;100254.06;;;20.22;84.27
76637;BME280;65532;52.124;5.480;2023-07-24T08:24:56;100267.38;;;20.42;83.88
76637;BME280;65532;52.124;5.480;2023-07-24T08:27:23;100264.75;;;20.59;82.35
76637;BME280;65532;52.124;5.480;2023-07-24T08:29:52;100263.94;;;20.59;80.75
76637;BME280;65532;52.124;5.480;2023-07-24T08:32:19;100263.09;;;20.36;81.56
76637;BME280;65532;52.124;5.480;2023-07-24T08:34:46;100274.59;;;20.52;82.36
76637;BME280;65532;52.124;5.480;2023-07-24T08:37:13;100272.28;;;20.68;81.90
76637;BME280;65532;52.124;5.480;2023-07-24T08:39:39;100277.78;;;20.68;79.52
76637;BME280;65532;52.124;5.480;2023-07-24T08:42:15;100264.19;;;20.71;79.69
76637;BME280;65532;52.124;5.480;2023-07-24T08:44:42;100271.63;;;20.93;79.79
76637;BME280;65532;52.124;5.480;2023-07-24T08:47:10;100262.22;;;20.94;78.71
76637;BME280;65532;52.124;5.480;2023-07-24T08:49:39;100269.38;;;20.73;78.69
76637;BME280;65532;52.124;5.480;2023-07-24T08:52:09;100269.63;;;20.62;78.47
76637;BME280;65532;52.124;5.480;2023-07-24T08:54:54;100263.66;;;20.83;79.30
76637;BME280;65532;52.124;5.480;2023-07-24T08:57:21;100257.84;;;21.15;79.20
76637;BME280;65532;52.124;5.480;2023-07-24T08:59:47;100269.59;;;21.07;78.17
76637;BME280;65532;52.124;5.480;2023-07-24T09:02:14;100261.03;;;21.40;77.09
76637;BME280;65532;52.124;5.480;2023-07-24T09:04:41;100258.13;;;21.45;75.72
76637;BME280;65532;52.124;5.480;2023-07-24T09:07:07;100265.03;;;21.25;75.60
76637;BME280;65532;52.124;5.480;2023-07-24T09:09:34;100265.19;;;21.29;76.04
76637;BME280;65532;52.124;5.480;2023-07-24T09:12:01;100260.06;;;21.36;75.09
76637;BME280;65532;52.124;5.480;2023-07-24T09:14:28;100245.69;;;21.47;74.55
76637;BME280;65532;52.124;5.480;2023-07-24T09:17:07;100246.06;;;21.72;75.13
76637;BME280;65532;52.124;5.480;2023-07-24T09:19:35;100243.28;;;22.29;74.13
76637;BME280;65532;52.124;5.480;2023-07-24T09:22:16;100243.56;;;22.70;72.49
76637;BME280;65532;52.124;5.480;2023-07-24T09:24:55;100237.84;;;23.01;72.49
76637;BME280;65532;52.124;5.480;2023-07-24T09:27:28;100240.78;;;22.96;69.43
76637;BME280;65532;52.124;5.480;2023-07-24T09:29:58;100241.31;;;22.47;69.71
76637;BME280;65532;52.124;5.480;2023-07-24T09:32:26;100229.63;;;22.24;70.04
76637;BME280;65532;52.124;5.480;2023-07-24T09:34:53;100231.69;;;22.01;71.36
76637;BME280;65532;52.124;5.480;2023-07-24T09:37:24;100224.50;;;21.74;71.88
76637;BME280;65532;52.124;5.480;2023-07-24T09:39:52;100221.19;;;21.46;72.51
76637;BME280;65532;52.124;5.480;2023-07-24T09:42:33;100218.00;;;21.21;73.40
76637;BME280;65532;52.124;5.480;2023-07-24T09:45:04;100204.50;;;21.11;74.29
76637;BME280;65532;52.124;5.480;2023-07-24T09:47:31;100205.25;;;20.94;74.04
76637;BME280;65532;52.124;5.480;2023-07-24T09:50:18;100209.84;;;20.77;74.26
76637;BME280;65532;52.124;5.480;2023-07-24T09:52:46;100215.47;;;20.72;74.38
76637;BME280;65532;52.124;5.480;2023-07-24T09:55:25;100212.97;;;20.61;74.78
76637;BME280;65532;52.124;5.480;2023-07-24T09:57:56;100228.34;;;20.85;75.08
76637;BME280;65532;52.124;5.480;2023-07-24T10:00:23;100244.91;;;20.93;74.05
76637;BME280;65532;52.124;5.480;2023-07-24T10:02:50;100233.66;;;21.12;74.17
76637;BME280;65532;52.124;5.480;2023-07-24T10:05:17;100234.47;;;21.44;74.46
76637;BME280;65532;52.124;5.480;2023-07-24T10:07:44;100231.88;;;21.39;73.72
76637;BME280;65532;52.124;5.480;2023-07-24T10:10:12;100225.91;;;21.14;72.98
76637;BME280;65532;52.124;5.480;2023-07-24T10:12:39;100224.16;;;21.18;72.83
76637;BME280;65532;52.124;5.480;2023-07-24T10:15:07;100228.47;;;21.42;73.09
76637;BME280;65532;52.124;5.480;2023-07-24T10:17:39;100236.78;;;21.59;72.33
76637;BME280;65532;52.124;5.480;2023-07-24T10:20:08;100226.47;;;21.73;71.63
76637;BME280;65532;52.124;5.480;2023-07-24T10:22:36;100226.28;;;21.70;71.58
76637;BME280;65532;52.124;5.480;2023-07-24T10:25:04;100219.16;;;21.69;72.75
76637;BME280;65532;52.124;5.480;2023-07-24T10:27:35;100205.13;;;22.05;72.75
76637;BME280;65532;52.124;5.480;2023-07-24T10:30:04;100200.09;;;22.24;71.24
76637;BME280;65532;52.124;5.480;2023-07-24T10:32:48;100192.28;;;21.92;70.58
76637;BME280;65532;52.124;5.480;2023-07-24T10:35:21;100201.63;;;21.56;70.67
76637;BME280;65532;52.124;5.480;2023-07-24T10:37:59;100204.97;;;21.36;71.08
76637;BME280;65532;52.124;5.480;2023-07-24T10:40:26;100203.25;;;21.17;71.32
76637;BME280;65532;52.124;5.480;2023-07-24T10:43:09;100204.34;;;21.08;72.13
76637;BME280;65532;52.124;5.480;2023-07-24T10:45:42;100200.09;;;21.33;71.97
76637;BME280;65532;52.124;5.480;2023-07-24T10:48:09;100206.81;;;21.58;71.91
76637;BME280;65532;52.124;5.480;2023-07-24T10:50:39;100212.53;;;21.70;71.37
76637;BME280;65532;52.124;5.480;2023-07-24T10:53:06;100208.66;;;21.79;70.95
76637;BME280;65532;52.124;5.480;2023-07-24T10:55:32;100196.66;;;21.93;70.49
76637;BME280;65532;52.124;5.480;2023-07-24T10:57:59;100192.63;;;22.33;70.51
76637;BME280;65532;52.124;5.480;2023-07-24T11:00:26;100190.69;;;22.34;68.33
76637;BME280;65532;52.124;5.480;2023-07-24T11:02:54;100200.91;;;22.33;67.76
76637;BME280;65532;52.124;5.480;2023-07-24T11:05:22;100185.34;;;22.20;67.58
76637;BME280;65532;52.124;5.480;2023-07-24T11:07:49;100195.72;;;22.23;67.54
76637;BME280;65532;52.124;5.480;2023-07-24T11:10:17;100199.97;;;22.12;68.28
76637;BME280;65532;52.124;5.480;2023-07-24T11:12:46;100192.66;;;22.16;68.21
76637;BME280;65532;52.124;5.480;2023-07-24T11:15:14;100194.91;;;22.23;68.55
76637;BME280;65532;52.124;5.480;2023-07-24T11:17:42;100190.84;;;22.37;69.29
76637;BME280;65532;52.124;5.480;2023-07-24T11:20:14;100185.16;;;22.34;69.24
76637;BME280;65532;52.124;5.480;2023-07-24T11:22:42;100188.56;;;22.39;68.28
76637;BME280;65532;52.124;5.480;2023-07-24T11:25:10;100195.69;;;22.40;68.17
76637;BME280;65532;52.124;5.480;2023-07-24T11:27:39;100202.50;;;22.52;69.09
76637;BME280;65532;52.124;5.480;2023-07-24T11:30:06;100210.00;;;22.42;67.53
76637;BME280;65532;52.124;5.480;2023-07-24T11:32:32;100213.06;;;22.58;69.07
76637;BME280;65532;52.124;5.480;2023-07-24T11:34:59;100211.47;;;23.21;68.17
76637;BME280;65532;52.124;5.480;2023-07-24T11:37:26;100210.59;;;23.29;65.74
76637;BME280;65532;52.124;5.480;2023-07-24T11:39:57;100227.03;;;23.26;66.37
76637;BME280;65532;52.124;5.480;2023-07-24T11:42:27;100223.00;;;23.53;66.30
76637;BME280;65532;52.124;5.480;2023-07-24T11:44:54;100234.91;;;23.83;65.03
76637;BME280;65532;52.124;5.480;2023-07-24T11:47:21;100222.28;;;23.73;64.50
76637;BME280;65532;52.124;5.480;2023-07-24T11:50:00;100224.34;;;23.47;65.56
76637;BME280;65532;52.124;5.480;2023-07-24T11:52:41;100220.91;;;23.12;66.87
76637;BME280;65532;52.124;5.480;2023-07-24T11:55:17;100205.56;;;22.85;67.64
76637;BME280;65532;52.124;5.480;2023-07-24T11:58:01;100220.66;;;22.70;67.85
76637;BME280;65532;52.124;5.480;2023-07-24T12:00:27;100222.28;;;22.71;69.18
76637;BME280;65532;52.124;5.480;2023-07-24T12:03:00;100220.72;;;22.35;68.98
76637;BME280;65532;52.124;5.480;2023-07-24T12:05:27;100224.56;;;22.00;69.98
76637;BME280;65532;52.124;5.480;2023-07-24T12:07:54;100221.88;;;21.60;70.84
76637;BME280;65532;52.124;5.480;2023-07-24T12:10:28;100217.28;;;21.38;72.24
76637;BME280;65532;52.124;5.480;2023-07-24T12:12:57;100223.19;;;21.23;73.69
76637;BME280;65532;52.124;5.480;2023-07-24T12:15:24;100213.72;;;21.07;74.04
76637;BME280;65532;52.124;5.480;2023-07-24T12:17:51;100211.03;;;20.84;74.92
76637;BME280;65532;52.124;5.480;2023-07-24T12:20:17;100200.94;;;20.80;75.67
76637;BME280;65532;52.124;5.480;2023-07-24T12:22:44;100203.13;;;20.91;76.25
76637;BME280;65532;52.124;5.480;2023-07-24T12:27:37;100195.97;;;21.21;76.55
76637;BME280;65532;52.124;5.480;2023-07-24T12:30:06;100192.56;;;21.73;76.43
76637;BME280;65532;52.124;5.480;2023-07-24T12:32:33;100181.31;;;22.26;74.33
76637;BME280;65532;52.124;5.480;2023-07-24T12:34:59;100182.72;;;22.50;73.99
76637;BME280;65532;52.124;5.480;2023-07-24T12:37:26;100196.34;;;22.55;73.10
76637;BME280;65532;52.124;5.480;2023-07-24T12:39:52;100202.22;;;22.45;72.03
76637;BME280;65532;52.124;5.480;2023-07-24T12:42:19;100184.97;;;22.65;71.56
76637;BME280;65532;52.124;5.480;2023-07-24T12:44:45;100191.88;;;22.97;71.78
76637;BME280;65532;52.124;5.480;2023-07-24T12:47:12;100193.88;;;23.26;70.00
76637;BME280;65532;52.124;5.480;2023-07-24T12:49:39;100201.94;;;23.01;68.59
76637;BME280;65532;52.124;5.480;2023-07-24T12:52:05;100189.84;;;22.51;69.67
76637;BME280;65532;52.124;5.480;2023-07-24T12:54:33;100196.53;;;22.24;71.04
76637;BME280;65532;52.124;5.480;2023-07-24T12:57:20;100198.00;;;22.21;71.56
76637;BME280;65532;52.124;5.480;2023-07-24T12:59:46;100198.00;;;22.21;72.29